createdAt,value
2019-04-04T00:00:30.582Z,17.93
2019-04-04T00:02:59.044Z,15.27
2019-04-04T00:05:27.520Z,16.50
2019-04-04T00:07:56.042Z,16.93
2019-04-04T00:10:24.513Z,19.30
2019-04-04T00:12:52.919Z,16.30
2019-04-04T00:15:21.390Z,19.10
2019-04-04T00:17:49.850Z,16.73
2019-04-04T00:20:18.298Z,19.97
2019-04-04T00:22:46.767Z,20.53
2019-04-04T00:25:15.217Z,19.43
2019-04-04T00:27:43.958Z,20.10
2019-04-04T00:30:13.192Z,16.77
2019-04-04T00:32:41.679Z,18.10
2019-04-04T00:35:10.155Z,20.30
2019-04-04T00:37:40.986Z,17.67
2019-04-04T00:40:11.694Z,17.90
2019-04-04T00:42:40.139Z,19.70
2019-04-04T00:45:08.607Z,18.73
2019-04-04T00:47:36.989Z,19.53
2019-04-04T00:50:06.646Z,24.47
2019-04-04T00:52:35.330Z,21.67
2019-04-04T00:55:04.155Z,18.53
2019-04-04T00:57:32.707Z,19.90
2019-04-04T01:00:01.151Z,23.17
2019-04-04T01:02:29.514Z,19.57
2019-04-04T01:04:57.919Z,19.70
2019-04-04T01:07:26.295Z,20.27
2019-04-04T01:09:54.676Z,19.57
2019-04-04T01:12:24.019Z,24.00
2019-04-04T01:14:52.474Z,23.33
2019-04-04T01:17:20.939Z,24.57
2019-04-04T01:19:49.821Z,22.03
2019-04-04T01:22:18.251Z,20.27
2019-04-04T01:24:46.723Z,23.10
2019-04-04T01:27:15.172Z,21.27
2019-04-04T01:29:43.617Z,22.33
2019-04-04T01:32:12.017Z,22.13
2019-04-04T01:34:40.500Z,19.43
2019-04-04T01:37:08.977Z,22.43
2019-04-04T01:39:37.415Z,18.60
2019-04-04T01:42:07.169Z,21.70
2019-04-04T01:44:37.022Z,21.37
2019-04-04T01:47:05.407Z,26.93
2019-04-04T01:49:33.882Z,22.27
2019-04-04T01:52:02.314Z,22.40
2019-04-04T01:54:32.048Z,23.20
2019-04-04T01:57:00.929Z,23.23
2019-04-04T01:59:29.298Z,22.67
2019-04-04T02:01:57.735Z,23.57
2019-04-04T02:04:26.115Z,23.57
2019-04-04T02:06:54.507Z,22.43
2019-04-04T02:09:23.017Z,22.93
2019-04-04T02:11:51.476Z,26.80
2019-04-04T02:14:19.836Z,25.33
2019-04-04T02:16:50.781Z,26.60
2019-04-04T02:19:18.451Z,26.17
2019-04-04T02:21:46.875Z,26.03
2019-04-04T02:24:15.310Z,24.07
2019-04-04T02:26:43.750Z,26.70
2019-04-04T02:29:12.119Z,23.93
2019-04-04T02:31:44.172Z,29.43
2019-04-04T02:34:12.601Z,26.60
2019-04-04T02:36:40.955Z,25.37
2019-04-04T02:39:11.621Z,27.87
2019-04-04T02:41:40.097Z,25.90
2019-04-04T02:44:08.591Z,20.63
2019-04-04T02:46:37.131Z,29.20
2019-04-04T02:49:05.667Z,28.67
2019-04-04T02:51:34.111Z,28.60
2019-04-04T02:54:02.675Z,32.77
2019-04-04T02:56:34.933Z,27.30
2019-04-04T02:59:01.415Z,28.77
2019-04-04T03:01:32.103Z,28.37
2019-04-04T03:04:00.136Z,28.80
2019-04-04T03:06:28.665Z,28.53
2019-04-04T03:08:57.194Z,27.87
2019-04-04T03:11:25.651Z,30.20
2019-04-04T03:13:54.168Z,32.83
2019-04-04T03:16:22.676Z,28.67
2019-04-04T03:18:51.151Z,29.43
2019-04-04T03:21:21.943Z,29.50
2019-04-04T03:23:49.661Z,30.47
2019-04-04T03:26:20.047Z,27.73
2019-04-04T03:28:48.329Z,36.10
2019-04-04T03:31:16.764Z,39.47
2019-04-04T03:33:45.252Z,37.73
2019-04-04T03:36:13.605Z,36.07
2019-04-04T03:38:46.108Z,35.80
2019-04-04T03:41:12.102Z,38.20
2019-04-04T03:43:40.451Z,32.80
2019-04-04T03:46:08.897Z,30.97
2019-04-04T03:48:38.123Z,33.00
2019-04-04T03:51:06.501Z,37.83
2019-04-04T03:53:34.981Z,31.43
2019-04-04T03:56:03.348Z,34.07
2019-04-04T03:58:31.711Z,35.83
2019-04-04T04:01:00.143Z,35.33
2019-04-04T04:03:28.511Z,36.27
2019-04-04T04:05:56.890Z,38.33
2019-04-04T04:08:25.330Z,37.30
2019-04-04T04:10:53.798Z,34.70
2019-04-04T04:13:22.282Z,34.73
2019-04-04T04:15:50.759Z,32.63
2019-04-04T04:18:21.250Z,29.90
2019-04-04T04:20:49.207Z,36.57
2019-04-04T04:23:17.645Z,33.00
2019-04-04T04:25:46.139Z,31.80
2019-04-04T04:28:14.500Z,36.57
2019-04-04T04:30:42.851Z,33.17
2019-04-04T04:33:11.279Z,40.10
2019-04-04T04:35:41.923Z,42.33
2019-04-04T04:38:09.780Z,41.33
2019-04-04T04:40:38.143Z,39.60
2019-04-04T04:43:06.532Z,33.70
2019-04-04T04:45:34.949Z,38.47
2019-04-04T04:48:03.313Z,42.20
2019-04-04T04:50:31.685Z,33.03
2019-04-04T04:53:00.140Z,36.47
2019-04-04T04:55:28.599Z,38.27
2019-04-04T04:57:57.075Z,41.87
2019-04-04T05:00:27.776Z,43.17
2019-04-04T05:02:55.714Z,45.07
2019-04-04T05:05:24.195Z,33.63
2019-04-04T05:07:54.877Z,45.63
2019-04-04T05:10:22.801Z,39.47
2019-04-04T05:12:53.197Z,42.87
2019-04-04T05:15:22.463Z,47.30
2019-04-04T05:17:51.222Z,39.73
2019-04-04T05:20:19.772Z,44.57
2019-04-04T05:22:48.152Z,46.00
2019-04-04T05:25:16.658Z,46.47
2019-04-04T05:27:45.060Z,48.77
2019-04-04T05:30:15.942Z,46.90
2019-04-04T05:32:43.591Z,43.63
2019-04-04T05:35:14.952Z,45.73
2019-04-04T05:37:42.086Z,45.13
2019-04-04T05:40:10.623Z,47.37
2019-04-04T05:42:39.058Z,42.10
2019-04-04T05:45:07.674Z,45.40
2019-04-04T05:47:37.209Z,40.10
2019-04-04T05:50:05.766Z,43.50
2019-04-04T05:52:34.648Z,44.80
2019-04-04T05:55:03.171Z,41.67
2019-04-04T05:57:31.670Z,39.13
2019-04-04T06:00:00.115Z,41.47
2019-04-04T06:02:28.551Z,39.87
2019-04-04T06:04:57.067Z,43.33
2019-04-04T06:07:25.471Z,46.20
2019-04-04T06:09:53.871Z,43.07
2019-04-04T06:12:22.954Z,39.90
2019-04-04T06:14:52.736Z,43.93
2019-04-04T06:17:21.167Z,50.23
2019-04-04T06:19:49.647Z,55.73
2019-04-04T06:22:19.059Z,46.90
2019-04-04T06:24:48.117Z,45.17
2019-04-04T06:27:16.551Z,43.77
2019-04-04T06:29:47.647Z,49.90
2019-04-04T06:32:15.102Z,51.17
2019-04-04T06:34:44.316Z,99.10
2019-04-04T06:37:13.307Z,81.60
2019-04-04T06:39:41.759Z,53.53
2019-04-04T06:42:11.413Z,44.90
2019-04-04T06:44:39.906Z,47.17
2019-04-04T06:47:08.358Z,50.27
2019-04-04T06:49:36.894Z,41.13
2019-04-04T06:52:05.434Z,41.53
2019-04-04T06:54:33.815Z,38.07
2019-04-04T06:57:03.884Z,47.73
2019-04-04T06:59:32.926Z,52.53
2019-04-04T07:02:01.740Z,45.27
2019-04-04T07:04:31.889Z,60.97
2019-04-04T07:07:00.266Z,50.87
2019-04-04T07:09:30.753Z,49.77
2019-04-04T07:11:59.100Z,64.00
2019-04-04T07:14:29.876Z,59.13
2019-04-04T07:16:57.676Z,50.13
2019-04-04T07:19:26.191Z,42.47
2019-04-04T07:21:54.582Z,39.07
2019-04-04T07:24:22.958Z,44.17
2019-04-04T07:26:51.326Z,45.80
2019-04-04T07:29:19.711Z,43.53
2019-04-04T07:31:48.203Z,47.03
2019-04-04T07:34:17.679Z,41.40
2019-04-04T07:36:46.122Z,43.33
2019-04-04T07:39:14.495Z,49.20
2019-04-04T07:41:44.957Z,51.27
2019-04-04T07:44:13.385Z,46.87
2019-04-04T07:46:45.400Z,47.57
2019-04-04T07:49:11.975Z,48.57
2019-04-04T07:51:40.458Z,50.43
2019-04-04T07:54:08.959Z,46.93
2019-04-04T07:56:37.466Z,53.53
2019-04-04T07:59:05.934Z,51.10
2019-04-04T08:01:34.386Z,51.63
2019-04-04T08:04:46.815Z,57.43
2019-04-04T08:07:15.037Z,56.23
2019-04-04T08:09:43.412Z,63.77
2019-04-04T08:12:11.859Z,59.53
2019-04-04T08:14:40.446Z,71.93
2019-04-04T08:17:08.865Z,66.37
2019-04-04T08:19:37.424Z,64.50
2019-04-04T08:22:07.216Z,63.93
2019-04-04T08:24:36.074Z,52.83
2019-04-04T08:27:04.595Z,53.93
2019-04-04T08:29:32.962Z,55.47
2019-04-04T08:32:01.508Z,48.10
2019-04-04T08:34:30.497Z,57.57
2019-04-04T08:36:58.990Z,49.57
2019-04-04T08:39:27.443Z,48.37
2019-04-04T08:41:55.875Z,50.27
2019-04-04T08:44:24.239Z,51.50
2019-04-04T08:46:55.441Z,44.23
2019-04-04T08:49:22.784Z,57.07
2019-04-04T08:51:51.285Z,49.90
2019-04-04T08:54:19.766Z,43.33
2019-04-04T08:56:48.205Z,44.70
2019-04-04T08:59:16.618Z,45.43
2019-04-04T09:01:45.088Z,46.20
2019-04-04T09:04:13.518Z,53.27
2019-04-04T09:06:41.993Z,47.97
2019-04-04T09:09:10.580Z,42.87
2019-04-04T09:11:39.083Z,43.60
2019-04-04T09:14:07.529Z,43.53
2019-04-04T09:16:35.931Z,41.00
2019-04-04T09:19:04.439Z,40.20
2019-04-04T09:21:32.888Z,43.30
2019-04-04T09:24:01.409Z,37.23
2019-04-04T09:26:29.859Z,36.67
2019-04-04T09:29:17.431Z,43.50
2019-04-04T09:31:45.831Z,40.80
2019-04-04T09:34:14.254Z,40.30
2019-04-04T09:36:42.738Z,35.57
2019-04-04T09:39:11.210Z,38.30
2019-04-04T09:41:39.608Z,34.73
2019-04-04T09:44:08.065Z,41.53
2019-04-04T09:46:36.531Z,41.53
2019-04-04T09:49:05.005Z,39.87
2019-04-04T09:51:33.557Z,34.93
2019-04-04T09:54:02.031Z,35.27
2019-04-04T09:56:30.479Z,38.53
2019-04-04T09:58:58.937Z,41.93
2019-04-04T10:01:27.319Z,39.23
2019-04-04T10:03:55.771Z,43.70
2019-04-04T10:06:24.335Z,43.77
2019-04-04T10:08:52.721Z,44.27
2019-04-04T10:11:21.246Z,44.33
2019-04-04T10:13:49.700Z,40.90
2019-04-04T10:16:18.167Z,47.93
2019-04-04T10:18:46.606Z,50.83
2019-04-04T10:21:14.979Z,42.30
2019-04-04T10:23:43.418Z,42.00
2019-04-04T10:26:11.870Z,45.97
2019-04-04T10:28:40.312Z,46.47
2019-04-04T10:31:08.774Z,49.30
2019-04-04T10:33:37.130Z,41.13
2019-04-04T10:36:05.559Z,48.37
2019-04-04T10:38:33.927Z,54.30
2019-04-04T10:41:02.302Z,49.63
2019-04-04T10:43:30.767Z,52.67
2019-04-04T10:45:59.166Z,45.60
2019-04-04T10:48:27.604Z,55.83
2019-04-04T10:50:56.051Z,48.97
2019-04-04T10:53:24.415Z,54.33
2019-04-04T10:55:52.786Z,48.43
2019-04-04T10:58:21.172Z,51.07
2019-04-04T11:00:49.552Z,37.23
2019-04-04T11:03:17.984Z,30.33
2019-04-04T11:05:46.349Z,34.93
2019-04-04T11:08:14.794Z,36.53
2019-04-04T11:10:43.222Z,26.60
2019-04-04T11:13:11.587Z,23.77
2019-04-04T11:15:40.054Z,26.33
2019-04-04T11:18:08.418Z,33.27
2019-04-04T11:20:36.863Z,25.33
2019-04-04T11:23:05.296Z,31.77
2019-04-04T11:25:33.665Z,26.10
2019-04-04T11:28:02.121Z,24.07
2019-04-04T11:30:30.580Z,22.00
2019-04-04T11:32:59.008Z,21.80
2019-04-04T11:35:27.358Z,23.93
2019-04-04T11:37:55.799Z,23.63
2019-04-04T11:40:24.171Z,24.50
2019-04-04T11:42:52.526Z,27.20
2019-04-04T11:45:20.953Z,29.17
2019-04-04T11:47:49.315Z,28.50
2019-04-04T11:50:17.765Z,26.53
2019-04-04T11:52:46.230Z,28.67
2019-04-04T11:55:14.718Z,32.43
2019-04-04T11:57:43.084Z,29.97
2019-04-04T12:00:15.554Z,30.23
2019-04-04T12:02:44.059Z,32.20
2019-04-04T12:05:12.414Z,25.60
2019-04-04T12:07:40.951Z,26.67
2019-04-04T12:10:09.495Z,25.73
2019-04-04T12:12:38.275Z,20.13
2019-04-04T12:15:07.386Z,20.57
2019-04-04T12:17:35.829Z,23.13
2019-04-04T12:20:04.613Z,21.70
2019-04-04T12:22:52.174Z,22.93
2019-04-04T12:25:20.635Z,20.43
2019-04-04T12:27:49.070Z,22.17
2019-04-04T12:30:20.450Z,20.87
2019-04-04T12:32:47.650Z,19.17
2019-04-04T12:35:16.106Z,21.70
2019-04-04T12:37:44.503Z,20.63
2019-04-04T12:40:20.500Z,20.13
2019-04-04T12:42:43.071Z,20.40
2019-04-04T12:45:11.531Z,24.57
2019-04-04T12:47:39.938Z,17.37
2019-04-04T12:50:09.475Z,18.23
2019-04-04T12:52:37.953Z,20.33
2019-04-04T12:55:06.507Z,15.63
2019-04-04T12:57:34.902Z,14.50
2019-04-04T13:00:03.764Z,17.83
2019-04-04T13:02:32.253Z,31.07
2019-04-04T13:05:00.727Z,23.27
2019-04-04T13:07:29.207Z,16.33
2019-04-04T13:09:57.695Z,16.23
2019-04-04T13:12:26.171Z,24.77
2019-04-04T13:14:55.167Z,15.17
2019-04-04T13:17:23.547Z,14.97
2019-04-04T13:19:52.008Z,19.00
2019-04-04T13:22:20.471Z,12.10
2019-04-04T13:24:48.937Z,10.90
2019-04-04T13:27:17.815Z,22.90
2019-04-04T13:29:46.358Z,10.97
2019-04-04T13:32:14.835Z,9.37
2019-04-04T13:34:59.276Z,11.53
2019-04-04T13:37:22.368Z,8.23
2019-04-04T13:39:50.790Z,8.13
2019-04-04T13:42:19.578Z,10.87
2019-04-04T13:44:50.680Z,8.30
2019-04-04T13:47:18.871Z,9.80
2019-04-04T13:49:47.418Z,8.93
2019-04-04T13:52:16.034Z,10.70
2019-04-04T13:54:44.432Z,11.27
2019-04-04T13:57:12.883Z,8.13
2019-04-04T13:59:41.341Z,14.07
2019-04-04T14:02:09.841Z,10.33
2019-04-04T14:04:38.975Z,12.23
2019-04-04T14:07:07.524Z,9.80
2019-04-04T14:09:36.007Z,10.00
2019-04-04T14:12:04.475Z,11.27
2019-04-04T14:14:32.963Z,11.00
2019-04-04T14:17:01.425Z,13.03
2019-04-04T14:19:31.594Z,11.57
2019-04-04T14:22:00.335Z,13.40
2019-04-04T14:24:28.688Z,12.00
2019-04-04T14:26:57.159Z,10.87
2019-04-04T14:29:27.571Z,10.60
2019-04-04T14:31:55.818Z,12.60
2019-04-04T14:34:24.214Z,11.83
2019-04-04T14:36:52.582Z,10.63
2019-04-04T14:39:21.126Z,12.33
2019-04-04T14:41:49.560Z,12.93
2019-04-04T14:44:18.111Z,8.90
2019-04-04T14:46:46.571Z,9.90
2019-04-04T14:49:15.172Z,7.87
2019-04-04T14:51:43.799Z,8.50
2019-04-04T14:54:12.385Z,8.07
2019-04-04T14:56:40.959Z,7.47
2019-04-04T14:59:09.577Z,7.43
2019-04-04T15:01:38.040Z,7.73
2019-04-04T15:04:06.620Z,7.37
2019-04-04T15:06:35.134Z,6.23
2019-04-04T15:09:05.950Z,8.90
2019-04-04T15:11:34.469Z,9.17
2019-04-04T15:14:03.027Z,8.17
2019-04-04T15:16:31.434Z,6.10
2019-04-04T15:19:00.016Z,5.80
2019-04-04T15:21:28.662Z,6.33
2019-04-04T15:23:57.150Z,5.80
2019-04-04T15:26:25.587Z,6.47
2019-04-04T15:29:02.407Z,7.20
2019-04-04T15:31:30.811Z,6.27
2019-04-04T15:33:59.306Z,7.87
2019-04-04T15:36:28.679Z,7.30
2019-04-04T15:38:57.082Z,7.50
2019-04-04T15:41:36.178Z,6.83
2019-04-04T15:43:55.710Z,7.43
2019-04-04T15:46:24.236Z,7.50
2019-04-04T15:48:52.606Z,8.20
2019-04-04T15:51:21.079Z,7.30
2019-04-04T15:53:49.571Z,7.57
2019-04-04T15:56:17.938Z,8.20
2019-04-04T15:58:46.435Z,7.27
2019-04-04T16:01:14.945Z,7.80
2019-04-04T16:03:43.503Z,8.07
2019-04-04T16:06:11.940Z,6.53
2019-04-04T16:08:40.455Z,7.83
2019-04-04T16:11:08.855Z,8.27
2019-04-04T16:13:37.222Z,7.77
2019-04-04T16:16:06.005Z,8.27
2019-04-04T16:18:34.445Z,9.97
2019-04-04T16:21:04.062Z,8.87
2019-04-04T16:23:32.539Z,8.60
2019-04-04T16:26:00.999Z,8.10
2019-04-04T16:28:29.503Z,10.73
2019-04-04T16:30:57.982Z,7.83
2019-04-04T16:33:26.651Z,8.10
2019-04-04T16:35:55.152Z,9.27
2019-04-04T16:38:23.619Z,9.17
2019-04-04T16:40:52.027Z,8.43
2019-04-04T16:43:25.686Z,7.43
2019-04-04T16:45:55.816Z,10.70
2019-04-04T16:48:28.308Z,8.73
2019-04-04T16:50:56.775Z,8.60
2019-04-04T16:53:25.255Z,8.63
2019-04-04T16:59:16.435Z,9.40
2019-04-04T17:01:44.919Z,8.43
2019-04-04T17:04:13.393Z,9.87
2019-04-04T17:06:41.863Z,11.20
2019-04-04T17:09:10.432Z,11.43
2019-04-04T17:11:38.966Z,10.47
2019-04-04T17:14:07.452Z,11.37
2019-04-04T17:16:35.918Z,10.73
2019-04-04T17:19:04.472Z,12.33
2019-04-04T17:21:32.970Z,12.37
2019-04-04T17:24:01.349Z,13.57
2019-04-04T17:26:29.919Z,13.13
2019-04-04T17:28:58.435Z,13.43
2019-04-04T17:31:27.262Z,14.20
2019-04-04T17:33:56.222Z,14.60
2019-04-04T17:36:24.893Z,14.93
2019-04-04T17:38:55.069Z,16.03
2019-04-04T17:41:23.821Z,15.27
2019-04-04T17:43:52.842Z,13.63
2019-04-04T17:46:21.933Z,13.90
2019-04-04T17:48:50.559Z,14.50
2019-04-04T17:51:19.175Z,14.73
2019-04-04T17:53:47.948Z,13.20
2019-04-04T17:56:16.787Z,16.83
2019-04-04T17:58:45.303Z,14.17
2019-04-04T18:01:13.800Z,17.47
2019-04-04T18:03:42.279Z,16.23
2019-04-04T18:06:10.857Z,16.93
2019-04-04T18:08:39.317Z,15.53
2019-04-04T18:11:07.777Z,15.37
2019-04-04T18:13:36.246Z,17.53
2019-04-04T18:16:04.740Z,17.60
2019-04-04T18:18:36.167Z,19.67
2019-04-04T18:21:04.660Z,25.30
2019-04-04T18:23:33.171Z,19.90
2019-04-04T18:26:01.643Z,20.00
2019-04-04T18:28:30.131Z,19.90
2019-04-04T18:30:58.603Z,21.90
2019-04-04T18:33:36.105Z,23.27
2019-04-04T18:36:04.678Z,26.50
2019-04-04T18:38:33.222Z,22.23
2019-04-04T18:41:03.010Z,23.50
2019-04-04T18:43:31.899Z,24.83
2019-04-04T18:46:00.291Z,18.37
2019-04-04T18:48:28.686Z,18.17
2019-04-04T18:53:24.762Z,20.93
2019-04-04T18:55:53.329Z,17.57
2019-04-04T18:58:21.712Z,21.10
2019-04-04T19:00:50.191Z,20.40
2019-04-04T19:03:18.760Z,18.63
2019-04-04T19:05:47.292Z,18.30
2019-04-04T19:08:15.775Z,21.40
2019-04-04T19:10:44.286Z,25.77
2019-04-04T19:13:12.757Z,22.50
2019-04-04T19:15:41.207Z,24.03
2019-04-04T19:18:09.869Z,20.03
2019-04-04T19:20:38.353Z,24.70
2019-04-04T19:23:06.898Z,20.27
2019-04-04T19:25:35.414Z,19.00
2019-04-04T19:28:03.876Z,21.20
2019-04-04T19:30:32.349Z,17.23
2019-04-04T19:33:00.854Z,18.17
2019-04-04T19:35:29.333Z,17.63
2019-04-04T19:38:00.359Z,18.83
2019-04-04T19:40:28.062Z,19.67
2019-04-04T19:42:56.670Z,21.87
2019-04-04T19:45:25.147Z,19.97
2019-04-04T19:47:53.678Z,17.37
2019-04-04T19:50:22.270Z,21.40
2019-04-04T19:52:50.664Z,21.27
2019-04-04T19:55:19.290Z,17.77
2019-04-04T19:57:47.756Z,19.40
2019-04-04T20:00:16.596Z,20.93
2019-04-04T20:02:45.133Z,16.53
2019-04-04T20:05:13.768Z,17.43
2019-04-04T20:07:42.257Z,16.40
2019-04-04T20:10:11.147Z,19.03
2019-04-04T20:12:39.716Z,16.43
2019-04-04T20:15:08.206Z,18.83
2019-04-04T20:17:36.713Z,17.83
2019-04-04T20:20:05.685Z,19.37
2019-04-04T20:22:34.078Z,17.67
2019-04-04T20:25:02.565Z,17.83
2019-04-04T20:27:30.973Z,20.13
2019-04-04T20:29:59.441Z,20.37
2019-04-04T20:32:27.872Z,21.60
2019-04-04T20:34:56.340Z,17.47
2019-04-04T20:37:24.735Z,16.60
2019-04-04T20:39:53.620Z,18.13
2019-04-04T20:42:22.079Z,22.03
2019-04-04T20:44:50.532Z,21.90
2019-04-04T20:47:18.980Z,20.10
2019-04-04T20:49:47.430Z,22.30
2019-04-04T20:52:15.816Z,20.13
2019-04-04T20:54:44.361Z,20.87
2019-04-04T20:57:13.074Z,21.00
2019-04-04T20:59:41.584Z,18.73
2019-04-04T21:02:10.014Z,20.63
2019-04-04T21:04:38.392Z,18.90
2019-04-04T21:07:06.850Z,19.43
2019-04-04T21:09:35.352Z,18.37
2019-04-04T21:12:03.875Z,18.90
2019-04-04T21:14:32.364Z,25.30
2019-04-04T21:17:00.850Z,22.50
2019-04-04T21:19:29.338Z,25.23
2019-04-04T21:21:57.739Z,22.47
2019-04-04T21:24:26.120Z,18.83
2019-04-04T21:26:54.703Z,22.50
2019-04-04T21:29:23.222Z,20.07
2019-04-04T21:31:51.677Z,24.97
2019-04-04T21:34:20.146Z,23.17
2019-04-04T21:36:48.542Z,23.73
2019-04-04T21:39:17.008Z,20.90
2019-04-04T21:41:45.480Z,22.87
2019-04-04T21:44:13.858Z,20.60
2019-04-04T21:46:42.312Z,22.37
2019-04-04T21:49:10.730Z,19.57
2019-04-04T21:51:39.131Z,21.60
2019-04-04T21:54:07.563Z,21.03
2019-04-04T21:56:36.088Z,21.27
2019-04-04T21:59:04.556Z,26.37
2019-04-04T22:01:33.032Z,18.57
2019-04-04T22:04:01.461Z,24.43
2019-04-04T22:06:29.960Z,19.30
2019-04-04T22:08:58.407Z,24.23
2019-04-04T22:11:26.979Z,24.60
2019-04-04T22:13:55.471Z,22.37
2019-04-04T22:16:23.944Z,22.90
2019-04-04T22:18:52.536Z,27.33
2019-04-04T22:21:27.325Z,24.17
2019-04-04T22:23:55.893Z,24.07
2019-04-04T22:26:24.305Z,26.33
2019-04-04T22:28:52.762Z,31.23
2019-04-04T22:31:21.277Z,26.90
2019-04-04T22:33:49.824Z,27.57
2019-04-04T22:36:18.356Z,27.83
2019-04-04T22:38:46.874Z,28.63
2019-04-04T22:41:15.370Z,37.23
2019-04-04T22:43:43.796Z,29.57
2019-04-04T22:46:12.297Z,30.43
2019-04-04T22:48:40.778Z,34.53
2019-04-04T22:51:28.457Z,31.80
2019-04-04T22:53:57.022Z,31.60
2019-04-04T22:56:25.503Z,29.53
2019-04-04T22:58:53.923Z,30.27
2019-04-04T23:01:22.505Z,41.83
2019-04-04T23:03:50.925Z,32.93
2019-04-04T23:06:19.529Z,37.37
2019-04-04T23:08:48.016Z,38.87
2019-04-04T23:11:16.515Z,34.97
2019-04-04T23:13:44.978Z,30.83
2019-04-04T23:16:13.440Z,32.13
2019-04-04T23:18:42.005Z,35.93
2019-04-04T23:21:10.577Z,40.90
2019-04-04T23:23:39.117Z,44.67
2019-04-04T23:26:07.633Z,46.23
2019-04-04T23:28:36.133Z,48.63
2019-04-04T23:31:04.724Z,43.40
2019-04-04T23:33:33.217Z,37.13
2019-04-04T23:36:01.732Z,40.13
2019-04-04T23:38:30.396Z,40.43
2019-04-04T23:40:58.824Z,44.30
2019-04-04T23:43:27.315Z,40.20
2019-04-04T23:45:55.843Z,41.03
2019-04-04T23:48:24.265Z,40.73
2019-04-04T23:50:52.732Z,48.60
2019-04-04T23:53:21.492Z,41.40
2019-04-04T23:55:49.981Z,39.23
2019-04-04T23:58:18.516Z,40.50
